createdAt,value
2023-05-21T00:00:44.572Z,17.83
2023-05-21T00:02:49.496Z,17.81
2023-05-21T00:04:54.521Z,17.81
2023-05-21T00:06:59.267Z,17.79
2023-05-21T00:09:05.586Z,17.78
2023-05-21T00:11:10.560Z,17.76
2023-05-21T00:13:15.438Z,17.75
2023-05-21T00:15:20.233Z,17.73
2023-05-21T00:17:24.995Z,17.71
2023-05-21T00:19:29.927Z,17.69
2023-05-21T00:21:34.651Z,17.70
2023-05-21T00:23:39.357Z,17.69
2023-05-21T00:25:45.588Z,17.69
2023-05-21T00:27:50.294Z,17.71
2023-05-21T00:29:56.218Z,17.71
2023-05-21T00:32:00.976Z,17.67
2023-05-21T00:34:05.700Z,17.63
2023-05-21T00:36:10.512Z,17.59
2023-05-21T00:38:15.206Z,17.58
2023-05-21T00:40:20.694Z,17.56
2023-05-21T00:42:25.573Z,17.53
2023-05-21T00:44:30.732Z,17.49
2023-05-21T00:46:36.295Z,17.43
2023-05-21T00:48:41.186Z,17.40
2023-05-21T00:50:46.152Z,17.34
2023-05-21T00:52:51.382Z,17.30
2023-05-21T00:54:56.788Z,17.25
2023-05-21T00:57:02.869Z,17.21
2023-05-21T00:59:07.667Z,17.17
2023-05-21T01:01:12.806Z,17.15
2023-05-21T01:03:17.694Z,17.14
2023-05-21T01:05:23.053Z,17.12
2023-05-21T01:07:27.743Z,17.10
2023-05-21T01:09:32.699Z,17.08
2023-05-21T01:11:41.411Z,17.06
2023-05-21T01:13:48.342Z,17.05
2023-05-21T01:15:53.958Z,17.07
2023-05-21T01:17:59.520Z,17.08
2023-05-21T01:20:06.767Z,17.12
2023-05-21T01:22:14.156Z,17.14
2023-05-21T01:24:19.249Z,17.15
2023-05-21T01:26:23.884Z,17.18
2023-05-21T01:28:28.736Z,17.23
2023-05-21T01:30:33.944Z,17.25
2023-05-21T01:32:48.127Z,17.27
2023-05-21T01:35:00.679Z,17.27
2023-05-21T01:37:12.794Z,17.28
2023-05-21T01:39:23.659Z,17.27
2023-05-21T01:41:33.109Z,17.27
2023-05-21T01:43:41.369Z,17.26
2023-05-21T01:45:47.421Z,17.24
2023-05-21T01:47:54.477Z,17.20
2023-05-21T01:50:00.156Z,17.16
2023-05-21T01:52:06.229Z,17.10
2023-05-21T01:54:13.659Z,17.03
2023-05-21T01:56:18.706Z,16.94
2023-05-21T01:58:23.417Z,16.86
2023-05-21T02:00:28.583Z,16.79
2023-05-21T02:02:33.436Z,16.75
2023-05-21T02:04:38.327Z,16.69
2023-05-21T02:06:46.164Z,16.64
2023-05-21T02:08:50.972Z,16.59
2023-05-21T02:10:55.904Z,16.55
2023-05-21T02:13:00.909Z,16.51
2023-05-21T02:15:07.316Z,16.52
2023-05-21T02:17:12.128Z,16.52
2023-05-21T02:19:17.445Z,16.52
2023-05-21T02:21:22.292Z,16.48
2023-05-21T02:23:27.094Z,16.47
2023-05-21T02:25:32.090Z,16.47
2023-05-21T02:27:37.119Z,16.47
2023-05-21T02:29:41.738Z,16.44
2023-05-21T02:31:46.493Z,16.43
2023-05-21T02:33:51.223Z,16.41
2023-05-21T02:35:56.048Z,16.40
2023-05-21T02:38:00.778Z,16.40
2023-05-21T02:40:08.810Z,16.38
2023-05-21T02:42:13.533Z,16.37
2023-05-21T02:44:18.347Z,16.36
2023-05-21T02:46:23.237Z,16.33
2023-05-21T02:48:29.909Z,16.32
2023-05-21T02:50:34.575Z,16.31
2023-05-21T02:52:39.295Z,16.29
2023-05-21T02:54:44.180Z,16.28
2023-05-21T02:56:51.753Z,16.27
2023-05-21T02:58:56.492Z,16.24
2023-05-21T03:01:01.320Z,16.23
2023-05-21T03:03:06.212Z,16.23
2023-05-21T03:05:12.599Z,16.23
2023-05-21T03:07:18.203Z,16.25
2023-05-21T03:09:23.098Z,16.22
2023-05-21T03:11:27.865Z,16.21
2023-05-21T03:13:33.733Z,16.22
2023-05-21T03:15:38.603Z,16.20
2023-05-21T03:17:43.542Z,16.20
2023-05-21T03:19:48.247Z,16.19
2023-05-21T03:21:53.091Z,16.19
2023-05-21T03:23:58.179Z,16.17
2023-05-21T03:26:02.929Z,16.16
2023-05-21T03:28:07.707Z,16.12
2023-05-21T03:30:20.528Z,16.09
2023-05-21T03:32:43.166Z,16.06
2023-05-21T03:34:47.978Z,16.03
2023-05-21T03:36:53.275Z,16.02
2023-05-21T03:38:58.903Z,16.02
2023-05-21T03:41:03.988Z,16.00
2023-05-21T03:43:08.892Z,16.01
2023-05-21T03:45:14.687Z,16.06
2023-05-21T03:47:38.784Z,16.04
2023-05-21T03:49:44.541Z,16.02
2023-05-21T03:51:49.217Z,16.02
2023-05-21T03:53:54.781Z,16.05
2023-05-21T03:55:59.792Z,16.09
2023-05-21T03:58:05.007Z,16.12
2023-05-21T04:00:11.062Z,16.15
2023-05-21T04:02:22.884Z,16.21
2023-05-21T04:04:27.788Z,16.26
2023-05-21T04:06:32.677Z,16.35
2023-05-21T04:08:37.278Z,16.40
2023-05-21T04:10:42.078Z,16.44
2023-05-21T04:12:47.485Z,16.50
2023-05-21T04:14:52.099Z,16.55
2023-05-21T04:16:56.961Z,16.56
2023-05-21T04:19:01.733Z,16.59
2023-05-21T04:21:07.595Z,16.64
2023-05-21T04:23:12.253Z,16.69
2023-05-21T04:25:18.147Z,16.74
2023-05-21T04:27:23.936Z,16.81
2023-05-21T04:29:29.637Z,16.85
2023-05-21T04:31:34.960Z,16.89
2023-05-21T04:33:40.474Z,16.93
2023-05-21T04:35:46.035Z,16.95
2023-05-21T04:37:50.785Z,16.98
2023-05-21T04:39:57.727Z,17.00
2023-05-21T04:42:04.030Z,17.04
2023-05-21T04:44:12.258Z,17.08
2023-05-21T04:46:19.991Z,17.15
2023-05-21T04:48:25.770Z,17.16
2023-05-21T04:50:30.901Z,17.16
2023-05-21T04:52:35.665Z,17.18
2023-05-21T04:54:40.415Z,17.22
2023-05-21T04:56:45.159Z,17.29
2023-05-21T04:58:49.787Z,17.34
2023-05-21T05:00:54.557Z,17.41
2023-05-21T05:02:59.349Z,17.45
2023-05-21T05:05:05.145Z,17.50
2023-05-21T05:07:11.161Z,17.54
2023-05-21T05:09:15.948Z,17.60
2023-05-21T05:11:20.647Z,17.66
2023-05-21T05:13:25.410Z,17.72
2023-05-21T05:15:30.818Z,17.77
2023-05-21T05:17:36.145Z,17.82
2023-05-21T05:19:40.884Z,17.87
2023-05-21T05:21:45.733Z,17.93
2023-05-21T05:23:50.473Z,18.01
2023-05-21T05:25:55.429Z,18.09
2023-05-21T05:28:00.130Z,18.17
2023-05-21T05:30:05.793Z,18.23
2023-05-21T05:32:10.959Z,18.30
2023-05-21T05:34:15.670Z,18.37
2023-05-21T05:36:20.425Z,18.47
2023-05-21T05:38:25.466Z,18.56
2023-05-21T05:40:30.081Z,18.63
2023-05-21T05:42:34.853Z,18.72
2023-05-21T05:44:41.358Z,18.79
2023-05-21T05:46:46.231Z,18.84
2023-05-21T05:48:53.698Z,18.88
2023-05-21T05:50:58.536Z,18.92
2023-05-21T05:53:03.811Z,18.95
2023-05-21T05:55:10.218Z,18.99
2023-05-21T05:57:15.478Z,19.06
2023-05-21T05:59:29.064Z,19.14
2023-05-21T06:01:36.063Z,19.21
2023-05-21T06:03:40.924Z,19.27
2023-05-21T06:05:55.947Z,19.32
2023-05-21T06:08:00.908Z,19.31
2023-05-21T06:10:06.394Z,19.37
2023-05-21T06:12:14.716Z,19.48
2023-05-21T06:14:19.650Z,19.61
2023-05-21T06:16:24.383Z,19.74
2023-05-21T06:18:29.207Z,19.83
2023-05-21T06:20:34.330Z,19.92
2023-05-21T06:22:39.040Z,19.99
2023-05-21T06:24:44.422Z,20.03
2023-05-21T06:26:50.020Z,20.13
2023-05-21T06:28:54.756Z,20.24
2023-05-21T06:30:59.878Z,20.35
2023-05-21T06:33:05.240Z,20.43
2023-05-21T06:35:10.782Z,20.52
2023-05-21T06:37:19.117Z,20.58
2023-05-21T06:39:26.669Z,20.68
2023-05-21T06:41:32.002Z,20.75
2023-05-21T06:43:40.601Z,20.81
2023-05-21T06:46:04.023Z,20.83
2023-05-21T06:48:15.547Z,20.88
2023-05-21T06:50:20.867Z,20.95
2023-05-21T06:52:25.620Z,21.02
2023-05-21T06:54:30.650Z,21.09
2023-05-21T06:56:35.419Z,21.16
2023-05-21T06:58:40.156Z,21.27
2023-05-21T07:00:44.810Z,21.38
2023-05-21T07:02:49.547Z,21.46
2023-05-21T07:04:57.251Z,21.45
2023-05-21T07:07:02.084Z,21.41
2023-05-21T07:09:06.899Z,21.37
2023-05-21T07:11:12.890Z,21.38
2023-05-21T07:13:18.344Z,21.40
2023-05-21T07:15:23.382Z,21.46
2023-05-21T07:17:28.305Z,21.47
2023-05-21T07:19:33.528Z,21.44
2023-05-21T07:21:38.405Z,21.48
2023-05-21T07:23:44.022Z,21.48
2023-05-21T07:25:48.979Z,21.47
2023-05-21T07:27:53.931Z,21.54
2023-05-21T07:29:58.728Z,21.56
2023-05-21T07:32:05.686Z,21.58
2023-05-21T07:34:13.171Z,21.66
2023-05-21T07:36:18.760Z,21.69
2023-05-21T07:38:23.922Z,21.73
2023-05-21T07:40:28.729Z,21.82
2023-05-21T07:42:33.818Z,21.95
2023-05-21T07:44:39.350Z,22.01
2023-05-21T07:46:45.069Z,22.01
2023-05-21T07:48:50.287Z,22.08
2023-05-21T07:50:55.001Z,22.17
2023-05-21T07:52:59.861Z,22.28
2023-05-21T07:55:05.119Z,22.39
2023-05-21T07:57:10.194Z,22.49
2023-05-21T07:59:24.853Z,22.60
2023-05-21T08:01:30.344Z,22.69
2023-05-21T08:03:35.741Z,22.70
2023-05-21T08:05:40.723Z,22.71
2023-05-21T08:07:45.452Z,22.80
2023-05-21T08:09:52.930Z,22.87
2023-05-21T08:11:57.745Z,22.86
2023-05-21T08:14:02.449Z,22.78
2023-05-21T08:16:07.970Z,22.72
2023-05-21T08:18:12.732Z,22.74
2023-05-21T08:20:19.599Z,22.77
2023-05-21T08:22:24.396Z,22.83
2023-05-21T08:24:29.168Z,22.90
2023-05-21T08:26:34.686Z,22.97
2023-05-21T08:28:40.757Z,23.03
2023-05-21T08:30:48.156Z,23.11
2023-05-21T08:32:53.536Z,23.20
2023-05-21T08:34:58.450Z,23.27
2023-05-21T08:37:26.162Z,23.34
2023-05-21T08:39:41.196Z,23.37
2023-05-21T08:41:48.877Z,23.38
2023-05-21T08:43:57.129Z,23.36
2023-05-21T08:46:03.568Z,23.31
2023-05-21T08:48:11.308Z,23.28
2023-05-21T08:50:17.645Z,23.32
2023-05-21T08:52:22.564Z,23.42
2023-05-21T08:54:27.630Z,23.50
2023-05-21T08:56:34.561Z,23.58
2023-05-21T08:58:45.029Z,23.64
2023-05-21T09:00:50.013Z,23.72
2023-05-21T09:02:55.960Z,23.75
2023-05-21T09:05:01.330Z,23.77
2023-05-21T09:07:06.786Z,23.79
2023-05-21T09:09:48.986Z,23.84
2023-05-21T09:11:53.825Z,23.88
2023-05-21T09:14:00.184Z,23.91
2023-05-21T09:16:14.932Z,23.97
2023-05-21T09:18:20.725Z,24.02
2023-05-21T09:20:32.498Z,24.07
2023-05-21T09:22:42.278Z,24.16
2023-05-21T09:24:47.202Z,24.23
2023-05-21T09:26:52.650Z,24.28
2023-05-21T09:29:00.173Z,24.34
2023-05-21T09:31:10.669Z,24.39
2023-05-21T09:33:28.904Z,24.37
2023-05-21T09:35:36.045Z,24.29
2023-05-21T09:37:41.868Z,24.21
2023-05-21T09:39:48.800Z,24.26
2023-05-21T09:41:53.518Z,24.36
2023-05-21T09:44:02.079Z,24.48
2023-05-21T09:46:07.219Z,24.58
2023-05-21T09:48:12.011Z,24.64
2023-05-21T09:50:20.206Z,24.70
2023-05-21T09:52:28.116Z,24.79
2023-05-21T09:54:34.566Z,24.87
2023-05-21T09:56:39.696Z,24.93
2023-05-21T09:58:44.751Z,24.99
2023-05-21T10:00:49.998Z,25.04
2023-05-21T10:02:57.180Z,25.09
2023-05-21T10:05:03.178Z,25.12
2023-05-21T10:07:08.877Z,25.11
2023-05-21T10:09:15.196Z,25.14
2023-05-21T10:11:22.088Z,25.12
2023-05-21T10:13:27.855Z,25.04
2023-05-21T10:15:37.780Z,24.93
2023-05-21T10:17:43.156Z,24.86
2023-05-21T10:19:48.687Z,24.86
2023-05-21T10:21:54.206Z,24.89
2023-05-21T10:23:59.816Z,24.95
2023-05-21T10:26:05.495Z,25.00
2023-05-21T10:28:10.634Z,25.07
2023-05-21T10:30:18.160Z,25.07
2023-05-21T10:32:23.156Z,25.08
2023-05-21T10:34:29.594Z,25.12
2023-05-21T10:36:35.814Z,25.20
2023-05-21T10:38:40.783Z,25.25
2023-05-21T10:40:46.464Z,25.28
2023-05-21T10:43:21.964Z,25.34
2023-05-21T10:45:42.371Z,25.43
2023-05-21T10:48:21.176Z,25.53
2023-05-21T10:50:54.125Z,25.63
2023-05-21T10:53:10.650Z,25.71
2023-05-21T10:55:29.187Z,25.78
2023-05-21T10:57:57.131Z,25.81
2023-05-21T11:00:02.571Z,25.76
2023-05-21T11:02:09.796Z,25.75
2023-05-21T11:04:14.593Z,25.80
2023-05-21T11:06:26.872Z,25.81
2023-05-21T11:08:33.094Z,25.79
2023-05-21T11:10:41.298Z,25.84
2023-05-21T11:13:10.799Z,25.85
2023-05-21T11:15:17.438Z,25.77
2023-05-21T11:17:39.525Z,25.69
2023-05-21T11:19:45.357Z,25.76
2023-05-21T11:21:55.216Z,25.88
2023-05-21T11:24:02.874Z,26.01
2023-05-21T11:26:08.216Z,26.11
2023-05-21T11:28:12.907Z,26.22
2023-05-21T11:30:21.867Z,26.33
2023-05-21T11:32:26.746Z,26.45
2023-05-21T11:34:39.176Z,26.55
2023-05-21T11:36:46.084Z,26.63
2023-05-21T11:39:10.230Z,26.69
2023-05-21T11:41:21.501Z,26.73
2023-05-21T11:43:26.514Z,26.80
2023-05-21T11:45:32.788Z,26.85
2023-05-21T11:47:37.709Z,26.85
2023-05-21T11:49:43.282Z,26.87
2023-05-21T11:51:48.900Z,26.95
2023-05-21T11:53:54.058Z,27.02
2023-05-21T11:56:02.025Z,27.11
2023-05-21T11:58:07.454Z,27.20
2023-05-21T12:00:16.792Z,27.31
2023-05-21T12:02:22.406Z,27.41
2023-05-21T12:04:31.812Z,27.48
2023-05-21T12:06:36.571Z,27.53
2023-05-21T12:08:41.327Z,27.56
2023-05-21T12:10:46.263Z,27.62
2023-05-21T12:12:56.472Z,27.66
2023-05-21T12:15:02.804Z,27.72
2023-05-21T12:17:08.663Z,27.77
2023-05-21T12:19:17.051Z,27.82
2023-05-21T12:21:21.936Z,27.86
2023-05-21T12:23:27.219Z,27.88
2023-05-21T12:25:31.952Z,27.92
2023-05-21T12:27:36.789Z,27.95
2023-05-21T12:29:42.672Z,27.98
2023-05-21T12:31:50.731Z,28.08
2023-05-21T12:33:55.562Z,28.16
2023-05-21T12:36:01.162Z,28.21
2023-05-21T12:38:07.069Z,28.27
2023-05-21T12:40:13.399Z,28.33
2023-05-21T12:42:24.260Z,28.27
2023-05-21T12:44:32.790Z,28.20
2023-05-21T12:46:39.903Z,28.19
2023-05-21T12:48:50.067Z,28.19
2023-05-21T12:50:54.893Z,28.30
2023-05-21T12:52:59.923Z,28.32
2023-05-21T12:55:06.212Z,28.27
2023-05-21T12:57:15.817Z,28.21
2023-05-21T12:59:20.467Z,28.25
2023-05-21T13:01:25.118Z,28.29
2023-05-21T13:03:32.044Z,28.30
2023-05-21T13:05:39.939Z,28.34
2023-05-21T13:07:45.203Z,28.34
2023-05-21T13:09:49.921Z,28.31
2023-05-21T13:11:54.536Z,28.31
2023-05-21T13:13:59.281Z,28.34
2023-05-21T13:16:04.209Z,28.40
2023-05-21T13:18:08.949Z,28.44
2023-05-21T13:20:15.455Z,28.51
2023-05-21T13:22:20.351Z,28.59
2023-05-21T13:24:25.046Z,28.59
2023-05-21T13:26:29.722Z,28.58
2023-05-21T13:28:34.565Z,28.58
2023-05-21T13:30:39.511Z,28.61
2023-05-21T13:32:45.222Z,28.61
2023-05-21T13:34:50.153Z,28.60
2023-05-21T13:36:54.978Z,28.60
2023-05-21T13:38:59.694Z,28.57
2023-05-21T13:41:04.308Z,28.53
2023-05-21T13:43:11.897Z,28.50
2023-05-21T13:45:17.880Z,28.51
2023-05-21T13:47:22.798Z,28.51
2023-05-21T13:49:28.569Z,28.44
2023-05-21T13:51:39.116Z,28.46
2023-05-21T13:53:44.390Z,28.45
2023-05-21T13:55:49.214Z,28.43
2023-05-21T13:57:53.885Z,28.42
2023-05-21T13:59:58.668Z,28.43
2023-05-21T14:02:03.313Z,28.43
2023-05-21T14:04:07.980Z,28.42
2023-05-21T14:06:12.647Z,28.41
2023-05-21T14:08:17.297Z,28.37
2023-05-21T14:10:22.034Z,28.37
2023-05-21T14:12:26.750Z,28.42
2023-05-21T14:14:31.508Z,28.49
2023-05-21T14:16:36.335Z,28.57
2023-05-21T14:18:41.192Z,28.61
2023-05-21T14:20:45.871Z,28.60
2023-05-21T14:22:50.543Z,28.58
2023-05-21T14:24:55.262Z,28.56
2023-05-21T14:27:03.025Z,28.49
2023-05-21T14:29:07.692Z,28.31
2023-05-21T14:31:12.504Z,28.25
2023-05-21T14:33:17.367Z,28.26
2023-05-21T14:35:22.026Z,28.25
2023-05-21T14:37:26.769Z,28.28
2023-05-21T14:39:31.483Z,28.27
2023-05-21T14:41:39.927Z,28.24
2023-05-21T14:43:44.608Z,28.21
2023-05-21T14:45:49.658Z,28.21
2023-05-21T14:47:54.546Z,28.19
2023-05-21T14:49:59.200Z,28.20
2023-05-21T14:52:04.147Z,28.23
2023-05-21T14:54:08.885Z,28.22
2023-05-21T14:56:13.543Z,28.19
2023-05-21T14:58:18.184Z,28.14
2023-05-21T15:00:22.867Z,28.12
2023-05-21T15:02:27.663Z,28.13
2023-05-21T15:04:32.414Z,28.14
2023-05-21T15:06:37.143Z,28.11
2023-05-21T15:08:41.912Z,28.10
2023-05-21T15:10:49.322Z,28.12
2023-05-21T15:12:54.461Z,28.12
2023-05-21T15:14:59.161Z,28.12
2023-05-21T15:17:04.063Z,28.11
2023-05-21T15:19:08.989Z,28.11
2023-05-21T15:21:13.765Z,28.10
2023-05-21T15:23:18.634Z,28.12
2023-05-21T15:25:23.552Z,28.08
2023-05-21T15:27:28.560Z,28.02
2023-05-21T15:29:33.205Z,28.01
2023-05-21T15:31:37.882Z,28.03
2023-05-21T15:33:42.508Z,27.96
2023-05-21T15:35:47.455Z,27.86
2023-05-21T15:37:52.145Z,27.82
2023-05-21T15:39:56.870Z,27.78
2023-05-21T15:42:01.631Z,27.77
2023-05-21T15:44:06.595Z,27.75
2023-05-21T15:46:11.418Z,27.76
2023-05-21T15:48:16.136Z,27.79
2023-05-21T15:50:20.736Z,27.78
2023-05-21T15:52:25.430Z,27.77
2023-05-21T15:54:30.330Z,27.82
2023-05-21T15:56:38.123Z,27.83
2023-05-21T15:58:42.817Z,27.83
2023-05-21T16:00:47.582Z,27.81
2023-05-21T16:02:52.317Z,27.70
2023-05-21T16:04:57.484Z,27.60
2023-05-21T16:07:02.099Z,27.54
2023-05-21T16:09:08.117Z,27.52
2023-05-21T16:11:13.034Z,27.54
2023-05-21T16:13:17.852Z,27.51
2023-05-21T16:15:25.525Z,27.52
2023-05-21T16:17:30.250Z,27.50
2023-05-21T16:19:35.084Z,27.39
2023-05-21T16:21:39.877Z,27.23
2023-05-21T16:23:44.614Z,27.11
2023-05-21T16:25:49.401Z,27.00
2023-05-21T16:27:55.328Z,26.99
2023-05-21T16:30:00.216Z,26.99
2023-05-21T16:32:05.350Z,27.02
2023-05-21T16:34:10.162Z,27.04
2023-05-21T16:36:16.907Z,27.08
2023-05-21T16:38:22.732Z,27.12
2023-05-21T16:40:27.629Z,27.14
2023-05-21T16:42:32.300Z,27.13
2023-05-21T16:44:37.110Z,27.09
2023-05-21T16:46:41.906Z,27.05
2023-05-21T16:48:46.611Z,26.99
2023-05-21T16:50:51.711Z,26.91
2023-05-21T16:52:56.458Z,26.85
2023-05-21T16:55:01.993Z,26.83
2023-05-21T16:57:07.017Z,26.85
2023-05-21T16:59:11.827Z,26.90
2023-05-21T17:01:16.699Z,26.97
2023-05-21T17:03:24.429Z,27.03
2023-05-21T17:05:29.215Z,27.10
2023-05-21T17:07:33.961Z,27.13
2023-05-21T17:09:38.645Z,27.17
2023-05-21T17:11:43.267Z,27.16
2023-05-21T17:13:47.969Z,27.06
2023-05-21T17:15:52.989Z,26.94
2023-05-21T17:17:57.763Z,26.83
2023-05-21T17:20:03.089Z,26.76
2023-05-21T17:22:07.893Z,26.75
2023-05-21T17:24:12.711Z,26.78
2023-05-21T17:26:17.452Z,26.84
2023-05-21T17:28:22.131Z,26.91
2023-05-21T17:30:26.799Z,26.93
2023-05-21T17:32:31.481Z,26.96
2023-05-21T17:34:36.166Z,26.97
2023-05-21T17:36:40.863Z,26.99
2023-05-21T17:38:45.573Z,27.00
2023-05-21T17:40:50.303Z,26.98
2023-05-21T17:42:55.419Z,26.97
2023-05-21T17:45:00.112Z,26.96
2023-05-21T17:47:05.383Z,26.96
2023-05-21T17:49:10.242Z,26.92
2023-05-21T17:51:14.911Z,26.88
2023-05-21T17:53:19.694Z,26.86
2023-05-21T17:55:24.337Z,26.81
2023-05-21T17:57:29.131Z,26.80
2023-05-21T17:59:33.785Z,26.76
2023-05-21T18:01:39.811Z,26.69
2023-05-21T18:03:44.484Z,26.65
2023-05-21T18:05:49.526Z,26.59
2023-05-21T18:07:54.248Z,26.56
2023-05-21T18:09:58.908Z,26.52
2023-05-21T18:12:04.491Z,26.48
2023-05-21T18:14:09.259Z,26.43
2023-05-21T18:16:14.046Z,26.36
2023-05-21T18:18:21.459Z,26.29
2023-05-21T18:20:26.578Z,26.24
2023-05-21T18:22:31.347Z,26.18
2023-05-21T18:24:36.081Z,26.10
2023-05-21T18:26:40.787Z,26.04
2023-05-21T18:28:45.559Z,25.94
2023-05-21T18:30:50.238Z,25.87
2023-05-21T18:32:54.906Z,25.79
2023-05-21T18:34:59.678Z,25.71
2023-05-21T18:37:04.592Z,25.66
2023-05-21T18:39:11.619Z,25.60
2023-05-21T18:41:16.765Z,25.53
2023-05-21T18:43:21.505Z,25.46
2023-05-21T18:45:26.412Z,25.40
2023-05-21T18:47:31.131Z,25.34
2023-05-21T18:49:36.384Z,25.29
2023-05-21T18:51:41.781Z,25.25
2023-05-21T18:53:46.441Z,25.22
2023-05-21T18:55:51.309Z,25.17
2023-05-21T18:57:56.069Z,25.07
2023-05-21T19:00:01.003Z,24.98
2023-05-21T19:02:06.536Z,24.91
2023-05-21T19:04:11.317Z,24.82
2023-05-21T19:06:16.219Z,24.76
2023-05-21T19:08:20.929Z,24.69
2023-05-21T19:10:25.601Z,24.62
2023-05-21T19:12:31.306Z,24.55
2023-05-21T19:14:36.061Z,24.48
2023-05-21T19:16:41.351Z,24.45
2023-05-21T19:18:46.533Z,24.39
2023-05-21T19:20:51.235Z,24.34
2023-05-21T19:22:56.073Z,24.31
2023-05-21T19:25:01.416Z,24.28
2023-05-21T19:27:06.438Z,24.25
2023-05-21T19:29:11.097Z,24.24
2023-05-21T19:31:15.881Z,24.22
2023-05-21T19:33:20.700Z,24.16
2023-05-21T19:35:25.686Z,24.14
2023-05-21T19:37:30.452Z,24.11
2023-05-21T19:39:40.568Z,24.07
2023-05-21T19:41:45.264Z,24.02
2023-05-21T19:43:50.326Z,23.99
2023-05-21T19:45:55.075Z,23.93
2023-05-21T19:47:59.970Z,23.85
2023-05-21T19:50:05.395Z,23.76
2023-05-21T19:52:10.125Z,23.68
2023-05-21T19:54:14.797Z,23.60
2023-05-21T19:56:19.562Z,23.54
2023-05-21T19:58:25.023Z,23.51
2023-05-21T20:00:29.944Z,23.47
2023-05-21T20:02:34.689Z,23.41
2023-05-21T20:04:39.411Z,23.35
2023-05-21T20:06:44.552Z,23.29
2023-05-21T20:08:49.370Z,23.28
2023-05-21T20:10:54.174Z,23.25
2023-05-21T20:12:58.990Z,23.23
2023-05-21T20:15:03.881Z,23.16
2023-05-21T20:17:10.045Z,23.08
2023-05-21T20:19:18.034Z,22.96
2023-05-21T20:21:23.036Z,22.84
2023-05-21T20:23:27.766Z,22.74
2023-05-21T20:25:32.502Z,22.66
2023-05-21T20:27:37.300Z,22.58
2023-05-21T20:29:42.043Z,22.53
2023-05-21T20:31:46.860Z,22.49
2023-05-21T20:33:51.621Z,22.46
2023-05-21T20:35:56.392Z,22.42
2023-05-21T20:38:01.096Z,22.38
2023-05-21T20:40:07.013Z,22.34
2023-05-21T20:42:11.718Z,22.31
2023-05-21T20:44:17.409Z,22.27
2023-05-21T20:46:22.144Z,22.24
2023-05-21T20:48:27.066Z,22.19
2023-05-21T20:50:31.762Z,22.14
2023-05-21T20:52:36.417Z,22.10
2023-05-21T20:54:41.108Z,22.05
2023-05-21T20:56:45.825Z,21.99
2023-05-21T20:58:53.516Z,21.94
2023-05-21T21:00:58.523Z,21.90
2023-05-21T21:03:03.256Z,21.87
2023-05-21T21:05:09.019Z,21.82
2023-05-21T21:07:13.664Z,21.77
2023-05-21T21:09:18.410Z,21.71
2023-05-21T21:11:23.425Z,21.66
2023-05-21T21:13:28.153Z,21.61
2023-05-21T21:15:32.844Z,21.57
2023-05-21T21:17:37.586Z,21.52
2023-05-21T21:19:42.243Z,21.46
2023-05-21T21:21:46.982Z,21.41
2023-05-21T21:23:51.662Z,21.35
2023-05-21T21:25:56.283Z,21.31
2023-05-21T21:28:01.016Z,21.29
2023-05-21T21:30:08.461Z,21.28
2023-05-21T21:32:13.184Z,21.24
2023-05-21T21:34:17.917Z,21.22
2023-05-21T21:36:22.773Z,21.20
2023-05-21T21:38:27.602Z,21.19
2023-05-21T21:40:32.364Z,21.16
2023-05-21T21:42:37.097Z,21.13
2023-05-21T21:44:41.837Z,21.12
2023-05-21T21:46:46.740Z,21.10
2023-05-21T21:48:51.480Z,21.08
2023-05-21T21:50:56.216Z,21.09
2023-05-21T21:53:00.905Z,21.11
2023-05-21T21:55:06.480Z,21.15
2023-05-21T21:57:11.124Z,21.17
2023-05-21T21:59:16.053Z,21.16
2023-05-21T22:01:20.776Z,21.14
2023-05-21T22:03:25.518Z,21.13
2023-05-21T22:05:30.286Z,21.12
2023-05-21T22:07:35.159Z,21.15
2023-05-21T22:09:39.966Z,21.15
2023-05-21T22:11:44.657Z,21.11
2023-05-21T22:13:49.306Z,21.07
2023-05-21T22:15:53.951Z,21.01
2023-05-21T22:17:59.093Z,20.97
2023-05-21T22:20:04.053Z,20.92
2023-05-21T22:22:08.767Z,20.88
2023-05-21T22:24:30.466Z,20.87
2023-05-21T22:26:36.476Z,20.83
2023-05-21T22:28:41.140Z,20.80
2023-05-21T22:30:45.939Z,20.76
2023-05-21T22:32:50.699Z,20.74
2023-05-21T22:34:55.377Z,20.69
2023-05-21T22:37:00.034Z,20.67
2023-05-21T22:39:04.884Z,20.65
2023-05-21T22:41:09.862Z,20.64
2023-05-21T22:43:14.615Z,20.61
2023-05-21T22:45:19.502Z,20.58
2023-05-21T22:47:24.192Z,20.55
2023-05-21T22:49:29.043Z,20.53
2023-05-21T22:51:33.729Z,20.52
2023-05-21T22:53:38.381Z,20.48
2023-05-21T22:55:43.039Z,20.45
2023-05-21T22:57:47.894Z,20.43
2023-05-21T22:59:52.672Z,20.39
2023-05-21T23:01:57.675Z,20.37
2023-05-21T23:04:02.365Z,20.33
2023-05-21T23:06:07.286Z,20.30
2023-05-21T23:08:11.934Z,20.30
2023-05-21T23:10:16.860Z,20.29
2023-05-21T23:12:21.551Z,20.24
2023-05-21T23:14:26.194Z,20.20
2023-05-21T23:16:31.038Z,20.17
2023-05-21T23:18:36.489Z,20.16
2023-05-21T23:20:41.951Z,20.14
2023-05-21T23:22:46.942Z,20.12
2023-05-21T23:24:51.658Z,20.10
2023-05-21T23:26:56.434Z,20.07
2023-05-21T23:29:01.447Z,20.05
2023-05-21T23:31:06.462Z,20.04
2023-05-21T23:33:12.607Z,20.03
2023-05-21T23:35:17.401Z,20.01
2023-05-21T23:37:22.595Z,19.99
2023-05-21T23:39:27.910Z,19.98
2023-05-21T23:41:32.597Z,19.98
2023-05-21T23:43:37.257Z,19.96
2023-05-21T23:45:42.019Z,19.98
2023-05-21T23:47:46.852Z,19.98
2023-05-21T23:49:51.603Z,19.94
2023-05-21T23:51:56.552Z,19.92
2023-05-21T23:54:01.166Z,19.88
2023-05-21T23:56:06.585Z,19.83
2023-05-21T23:58:11.303Z,19.78
